sensor_id;sensor_type;location;lat;lon;timestamp;pressure;altitude;pressure_sealevel;temperature;humidity
12987;BME280;58897;51.960;5.582;2022-10-26T00:00:42;101130.28;;;12.10;100.00
12987;BME280;58897;51.960;5.582;2022-10-26T00:03:09;101123.50;;;12.06;100.00
12987;BME280;58897;51.960;5.582;2022-10-26T00:05:35;101129.94;;;12.13;100.00
12987;BME280;58897;51.960;5.582;2022-10-26T00:08:02;101121.47;;;12.08;100.00
12987;BME280;58897;51.960;5.582;2022-10-26T00:10:28;101121.97;;;12.04;100.00
12987;BME280;58897;51.960;5.582;2022-10-26T00:12:57;101116.41;;;12.13;100.00
12987;BME280;58897;51.960;5.582;2022-10-26T00:15:23;101114.72;;;12.20;100.00
12987;BME280;58897;51.960;5.582;2022-10-26T00:17:50;101108.44;;;11.96;100.00
12987;BME280;58897;51.960;5.582;2022-10-26T00:20:17;101098.28;;;12.06;100.00
12987;BME280;58897;51.960;5.582;2022-10-26T00:22:43;101101.84;;;12.06;100.00
12987;BME280;58897;51.960;5.582;2022-10-26T00:25:10;101104.22;;;12.09;100.00
12987;BME280;58897;51.960;5.582;2022-10-26T00:27:36;101107.44;;;12.13;100.00
12987;BME280;58897;51.960;5.582;2022-10-26T00:30:04;101097.63;;;12.12;100.00
12987;BME280;58897;51.960;5.582;2022-10-26T00:32:31;101091.03;;;12.14;100.00
12987;BME280;58897;51.960;5.582;2022-10-26T00:34:57;101098.31;;;12.14;100.00
12987;BME280;58897;51.960;5.582;2022-10-26T00:37:42;101096.25;;;12.08;100.00
12987;BME280;58897;51.960;5.582;2022-10-26T00:40:09;101091.50;;;12.10;100.00
12987;BME280;58897;51.960;5.582;2022-10-26T00:42:35;101090.72;;;12.17;100.00
12987;BME280;58897;51.960;5.582;2022-10-26T00:45:19;101094.75;;;12.13;100.00
12987;BME280;58897;51.960;5.582;2022-10-26T00:47:48;101096.09;;;12.09;100.00
12987;BME280;58897;51.960;5.582;2022-10-26T00:50:26;101092.34;;;12.02;100.00
12987;BME280;58897;51.960;5.582;2022-10-26T00:52:54;101089.19;;;12.15;100.00
12987;BME280;58897;51.960;5.582;2022-10-26T00:55:26;101084.91;;;12.12;100.00
12987;BME280;58897;51.960;5.582;2022-10-26T00:57:53;101082.22;;;12.04;100.00
12987;BME280;58897;51.960;5.582;2022-10-26T01:00:20;101087.97;;;12.01;100.00
12987;BME280;58897;51.960;5.582;2022-10-26T01:02:49;101077.63;;;11.97;100.00
12987;BME280;58897;51.960;5.582;2022-10-26T01:05:18;101077.47;;;11.98;100.00
12987;BME280;58897;51.960;5.582;2022-10-26T01:07:46;101069.00;;;11.93;100.00
12987;BME280;58897;51.960;5.582;2022-10-26T01:10:13;101075.75;;;11.89;100.00
12987;BME280;58897;51.960;5.582;2022-10-26T01:12:40;101069.84;;;11.94;100.00
12987;BME280;58897;51.960;5.582;2022-10-26T01:15:07;101063.25;;;11.88;100.00
12987;BME280;58897;51.960;5.582;2022-10-26T01:17:54;101068.47;;;11.90;100.00
12987;BME280;58897;51.960;5.582;2022-10-26T01:23:23;101054.78;;;11.83;100.00
12987;BME280;58897;51.960;5.582;2022-10-26T01:26:11;101047.97;;;11.79;100.00
12987;BME280;58897;51.960;5.582;2022-10-26T01:31:38;101044.44;;;11.87;100.00
12987;BME280;58897;51.960;5.582;2022-10-26T01:34:14;101039.53;;;11.82;100.00
12987;BME280;58897;51.960;5.582;2022-10-26T01:37:08;101037.84;;;11.73;100.00
12987;BME280;58897;51.960;5.582;2022-10-26T01:39:37;101035.28;;;11.71;100.00
12987;BME280;58897;51.960;5.582;2022-10-26T01:42:07;101038.34;;;11.76;100.00
12987;BME280;58897;51.960;5.582;2022-10-26T01:45:04;101035.06;;;11.57;100.00
12987;BME280;58897;51.960;5.582;2022-10-26T01:47:33;101037.06;;;11.63;100.00
12987;BME280;58897;51.960;5.582;2022-10-26T01:50:01;101033.44;;;11.80;100.00
12987;BME280;58897;51.960;5.582;2022-10-26T01:52:29;101042.41;;;11.81;100.00
12987;BME280;58897;51.960;5.582;2022-10-26T01:58:12;101038.69;;;11.90;100.00
12987;BME280;58897;51.960;5.582;2022-10-26T02:00:48;101034.66;;;11.94;100.00
12987;BME280;58897;51.960;5.582;2022-10-26T02:06:21;101031.84;;;11.61;100.00
12987;BME280;58897;51.960;5.582;2022-10-26T02:08:57;101021.94;;;11.70;100.00
12987;BME280;58897;51.960;5.582;2022-10-26T02:11:35;101021.09;;;11.86;100.00
12987;BME280;58897;51.960;5.582;2022-10-26T02:19:37;101027.88;;;11.90;100.00
12987;BME280;58897;51.960;5.582;2022-10-26T02:22:34;101020.41;;;11.84;100.00
12987;BME280;58897;51.960;5.582;2022-10-26T02:25:11;101010.78;;;11.89;100.00
12987;BME280;58897;51.960;5.582;2022-10-26T02:27:46;101013.31;;;11.74;100.00
12987;BME280;58897;51.960;5.582;2022-10-26T02:30:15;101012.28;;;11.92;100.00
12987;BME280;58897;51.960;5.582;2022-10-26T02:32:47;101009.09;;;11.80;100.00
12987;BME280;58897;51.960;5.582;2022-10-26T02:35:18;101019.22;;;11.70;100.00
12987;BME280;58897;51.960;5.582;2022-10-26T02:37:46;101005.34;;;11.89;100.00
12987;BME280;58897;51.960;5.582;2022-10-26T02:40:17;100996.41;;;11.89;100.00
12987;BME280;58897;51.960;5.582;2022-10-26T02:42:46;100998.41;;;11.87;100.00
12987;BME280;58897;51.960;5.582;2022-10-26T02:45:18;100987.94;;;11.92;100.00
12987;BME280;58897;51.960;5.582;2022-10-26T02:47:47;100978.63;;;11.94;100.00
12987;BME280;58897;51.960;5.582;2022-10-26T02:50:14;100981.34;;;11.94;100.00
12987;BME280;58897;51.960;5.582;2022-10-26T02:53:00;100984.56;;;11.98;100.00
12987;BME280;58897;51.960;5.582;2022-10-26T02:55:35;100985.25;;;11.75;100.00
12987;BME280;58897;51.960;5.582;2022-10-26T02:58:11;100986.41;;;11.89;100.00
12987;BME280;58897;51.960;5.582;2022-10-26T03:00:41;100988.28;;;11.89;100.00
12987;BME280;58897;51.960;5.582;2022-10-26T03:03:08;100988.28;;;11.81;100.00
12987;BME280;58897;51.960;5.582;2022-10-26T03:05:35;100998.78;;;11.75;100.00
12987;BME280;58897;51.960;5.582;2022-10-26T03:08:02;100997.41;;;11.80;100.00
12987;BME280;58897;51.960;5.582;2022-10-26T03:10:29;100988.63;;;11.86;100.00
12987;BME280;58897;51.960;5.582;2022-10-26T03:12:57;100988.63;;;11.86;100.00
12987;BME280;58897;51.960;5.582;2022-10-26T03:15:23;100986.78;;;11.86;100.00
12987;BME280;58897;51.960;5.582;2022-10-26T03:17:50;100983.22;;;11.94;100.00
12987;BME280;58897;51.960;5.582;2022-10-26T03:20:17;100978.28;;;11.89;100.00
12987;BME280;58897;51.960;5.582;2022-10-26T03:22:46;100973.91;;;11.80;100.00
12987;BME280;58897;51.960;5.582;2022-10-26T03:25:13;100974.75;;;11.81;100.00
12987;BME280;58897;51.960;5.582;2022-10-26T03:27:41;100973.22;;;11.78;100.00
12987;BME280;58897;51.960;5.582;2022-10-26T03:30:07;100974.91;;;11.87;100.00
12987;BME280;58897;51.960;5.582;2022-10-26T03:32:34;100975.19;;;11.68;100.00
12987;BME280;58897;51.960;5.582;2022-10-26T03:35:00;100969.16;;;11.82;100.00
12987;BME280;58897;51.960;5.582;2022-10-26T03:37:27;100972.72;;;11.83;100.00
12987;BME280;58897;51.960;5.582;2022-10-26T03:39:53;100968.66;;;11.87;100.00
12987;BME280;58897;51.960;5.582;2022-10-26T03:42:20;100976.28;;;11.83;100.00
12987;BME280;58897;51.960;5.582;2022-10-26T03:44:46;100972.53;;;11.76;100.00
12987;BME280;58897;51.960;5.582;2022-10-26T03:47:13;100968.16;;;11.83;100.00
12987;BME280;58897;51.960;5.582;2022-10-26T03:49:39;100970.16;;;11.81;100.00
12987;BME280;58897;51.960;5.582;2022-10-26T03:52:06;100967.63;;;11.80;100.00
12987;BME280;58897;51.960;5.582;2022-10-26T03:54:32;100972.38;;;11.77;100.00
12987;BME280;58897;51.960;5.582;2022-10-26T03:56:58;100967.13;;;11.76;100.00
12987;BME280;58897;51.960;5.582;2022-10-26T03:59:25;100960.19;;;11.73;100.00
12987;BME280;58897;51.960;5.582;2022-10-26T04:01:51;100966.44;;;11.74;100.00
12987;BME280;58897;51.960;5.582;2022-10-26T04:04:23;100965.78;;;11.80;100.00
12987;BME280;58897;51.960;5.582;2022-10-26T04:06:49;100970.16;;;11.81;100.00
12987;BME280;58897;51.960;5.582;2022-10-26T04:09:15;100965.78;;;11.80;100.00
12987;BME280;58897;51.960;5.582;2022-10-26T04:11:42;100967.97;;;11.76;100.00
12987;BME280;58897;51.960;5.582;2022-10-26T04:14:08;100962.72;;;11.75;100.00
12987;BME280;58897;51.960;5.582;2022-10-26T04:16:35;100963.72;;;11.74;100.00
12987;BME280;58897;51.960;5.582;2022-10-26T04:19:01;100964.41;;;11.84;100.00
12987;BME280;58897;51.960;5.582;2022-10-26T04:21:28;100964.41;;;11.92;100.00
12987;BME280;58897;51.960;5.582;2022-10-26T04:23:54;100965.78;;;11.80;100.00
12987;BME280;58897;51.960;5.582;2022-10-26T04:26:21;100962.22;;;11.88;100.00
12987;BME280;58897;51.960;5.582;2022-10-26T04:28:47;100968.75;;;11.61;100.00
12987;BME280;58897;51.960;5.582;2022-10-26T04:31:14;100963.88;;;11.64;100.00
12987;BME280;58897;51.960;5.582;2022-10-26T04:33:40;100965.25;;;11.68;100.00
12987;BME280;58897;51.960;5.582;2022-10-26T04:36:07;100963.53;;;11.67;100.00
12987;BME280;58897;51.960;5.582;2022-10-26T04:38:33;100959.50;;;11.80;100.00
12987;BME280;58897;51.960;5.582;2022-10-26T04:41:00;100964.75;;;11.81;100.00
12987;BME280;58897;51.960;5.582;2022-10-26T04:43:26;100958.16;;;11.84;100.00
12987;BME280;58897;51.960;5.582;2022-10-26T04:45:56;100963.56;;;11.84;100.00
12987;BME280;58897;51.960;5.582;2022-10-26T04:48:23;100962.41;;;11.78;100.00
12987;BME280;58897;51.960;5.582;2022-10-26T04:50:58;100952.38;;;11.62;100.00
12987;BME280;58897;51.960;5.582;2022-10-26T04:53:25;100952.72;;;11.67;100.00
12987;BME280;58897;51.960;5.582;2022-10-26T04:55:58;100949.88;;;11.77;100.00
12987;BME280;58897;51.960;5.582;2022-10-26T04:58:26;100957.84;;;11.70;100.00
12987;BME280;58897;51.960;5.582;2022-10-26T05:00:53;100954.22;;;11.62;100.00
12987;BME280;58897;51.960;5.582;2022-10-26T05:03:20;100948.16;;;11.76;100.00
12987;BME280;58897;51.960;5.582;2022-10-26T05:05:46;100949.72;;;11.70;100.00
12987;BME280;58897;51.960;5.582;2022-10-26T05:08:13;100951.72;;;11.68;100.00
12987;BME280;58897;51.960;5.582;2022-10-26T05:10:40;100949.03;;;11.85;100.00
12987;BME280;58897;51.960;5.582;2022-10-26T05:13:08;100951.72;;;11.76;100.00
12987;BME280;58897;51.960;5.582;2022-10-26T05:15:34;100946.50;;;11.83;100.00
12987;BME280;58897;51.960;5.582;2022-10-26T05:18:02;100947.16;;;11.85;100.00
12987;BME280;58897;51.960;5.582;2022-10-26T05:20:32;100952.59;;;11.85;100.00
12987;BME280;58897;51.960;5.582;2022-10-26T05:23:04;100948.69;;;11.88;100.00
12987;BME280;58897;51.960;5.582;2022-10-26T05:25:34;100955.63;;;11.82;100.00
12987;BME280;58897;51.960;5.582;2022-10-26T05:28:02;100957.66;;;11.80;100.00
12987;BME280;58897;51.960;5.582;2022-10-26T05:30:30;100961.72;;;11.92;100.00
12987;BME280;58897;51.960;5.582;2022-10-26T05:32:58;100959.19;;;11.99;100.00
12987;BME280;58897;51.960;5.582;2022-10-26T05:35:25;100959.34;;;11.97;100.00
12987;BME280;58897;51.960;5.582;2022-10-26T05:37:52;100965.94;;;11.95;100.00
12987;BME280;58897;51.960;5.582;2022-10-26T05:40:19;100961.72;;;11.92;100.00
12987;BME280;58897;51.960;5.582;2022-10-26T05:42:46;100955.81;;;11.89;100.00
12987;BME280;58897;51.960;5.582;2022-10-26T05:45:13;100963.22;;;11.87;100.00
12987;BME280;58897;51.960;5.582;2022-10-26T05:47:40;100971.69;;;11.92;100.00
12987;BME280;58897;51.960;5.582;2022-10-26T05:50:08;100961.38;;;11.87;100.00
12987;BME280;58897;51.960;5.582;2022-10-26T05:52:45;100976.44;;;11.90;100.00
12987;BME280;58897;51.960;5.582;2022-10-26T05:55:14;100973.41;;;11.93;100.00
12987;BME280;58897;51.960;5.582;2022-10-26T05:57:41;100975.09;;;11.94;100.00
12987;BME280;58897;51.960;5.582;2022-10-26T06:00:14;100976.28;;;11.91;100.00
12987;BME280;58897;51.960;5.582;2022-10-26T06:05:20;100977.44;;;12.05;100.00
12987;BME280;58897;51.960;5.582;2022-10-26T06:07:48;100973.91;;;11.96;100.00
12987;BME280;58897;51.960;5.582;2022-10-26T06:10:15;100977.44;;;11.97;100.00
12987;BME280;58897;51.960;5.582;2022-10-26T06:12:42;100989.47;;;11.86;100.00
12987;BME280;58897;51.960;5.582;2022-10-26T06:15:13;100984.56;;;11.98;100.00
12987;BME280;58897;51.960;5.582;2022-10-26T06:20:35;100985.22;;;12.08;100.00
12987;BME280;58897;51.960;5.582;2022-10-26T06:30:40;100977.13;;;12.08;100.00
12987;BME280;58897;51.960;5.582;2022-10-26T06:33:08;100980.84;;;12.07;100.00
12987;BME280;58897;51.960;5.582;2022-10-26T06:38:40;100983.56;;;12.15;100.00
12987;BME280;58897;51.960;5.582;2022-10-26T06:41:11;100983.72;;;12.13;100.00
12987;BME280;58897;51.960;5.582;2022-10-26T06:43:40;100977.09;;;12.24;100.00
12987;BME280;58897;51.960;5.582;2022-10-26T06:50:00;100979.31;;;12.20;100.00
12987;BME280;58897;51.960;5.582;2022-10-26T06:52:39;100984.72;;;12.28;100.00
12987;BME280;58897;51.960;5.582;2022-10-26T06:55:14;100986.94;;;12.25;100.00
12987;BME280;58897;51.960;5.582;2022-10-26T06:57:42;100979.81;;;12.32;100.00
12987;BME280;58897;51.960;5.582;2022-10-26T07:00:20;100975.72;;;12.36;100.00
12987;BME280;58897;51.960;5.582;2022-10-26T07:02:48;100969.50;;;12.35;100.00
12987;BME280;58897;51.960;5.582;2022-10-26T07:05:15;100970.63;;;12.49;100.00
12987;BME280;58897;51.960;5.582;2022-10-26T07:07:44;100972.13;;;12.60;100.00
12987;BME280;58897;51.960;5.582;2022-10-26T07:10:13;100979.41;;;12.67;100.00
12987;BME280;58897;51.960;5.582;2022-10-26T07:12:40;100985.13;;;12.72;100.00
12987;BME280;58897;51.960;5.582;2022-10-26T07:15:06;100993.75;;;12.84;100.00
12987;BME280;58897;51.960;5.582;2022-10-26T07:17:44;100996.28;;;12.85;100.00
12987;BME280;58897;51.960;5.582;2022-10-26T07:20:11;100995.94;;;12.88;100.00
12987;BME280;58897;51.960;5.582;2022-10-26T07:22:38;100986.47;;;12.84;100.00
12987;BME280;58897;51.960;5.582;2022-10-26T07:25:05;100984.09;;;12.89;100.00
12987;BME280;58897;51.960;5.582;2022-10-26T07:27:33;100988.09;;;13.01;100.00
12987;BME280;58897;51.960;5.582;2022-10-26T07:30:01;100991.66;;;13.02;100.00
12987;BME280;58897;51.960;5.582;2022-10-26T07:32:27;100986.06;;;13.03;100.00
12987;BME280;58897;51.960;5.582;2022-10-26T07:34:54;100991.00;;;13.08;100.00
12987;BME280;58897;51.960;5.582;2022-10-26T07:37:20;100998.94;;;13.01;100.00
12987;BME280;58897;51.960;5.582;2022-10-26T07:39:46;101002.69;;;13.09;100.00
12987;BME280;58897;51.960;5.582;2022-10-26T07:42:14;101007.94;;;13.10;100.00
12987;BME280;58897;51.960;5.582;2022-10-26T07:44:40;101005.34;;;13.17;100.00
12987;BME280;58897;51.960;5.582;2022-10-26T07:47:06;101000.31;;;13.06;100.00
12987;BME280;58897;51.960;5.582;2022-10-26T07:49:33;101005.56;;;13.07;100.00
12987;BME280;58897;51.960;5.582;2022-10-26T07:52:00;101005.19;;;13.18;100.00
12987;BME280;58897;51.960;5.582;2022-10-26T07:54:26;101005.22;;;13.10;100.00
12987;BME280;58897;51.960;5.582;2022-10-26T07:56:52;101013.34;;;13.18;100.00
12987;BME280;58897;51.960;5.582;2022-10-26T07:59:19;101022.44;;;13.25;100.00
12987;BME280;58897;51.960;5.582;2022-10-26T08:01:45;101017.00;;;13.33;100.00
12987;BME280;58897;51.960;5.582;2022-10-26T08:04:12;101019.00;;;13.39;100.00
12987;BME280;58897;51.960;5.582;2022-10-26T08:06:38;101008.28;;;13.46;100.00
12987;BME280;58897;51.960;5.582;2022-10-26T08:09:05;101019.41;;;13.59;100.00
12987;BME280;58897;51.960;5.582;2022-10-26T08:11:31;101038.19;;;13.69;100.00
12987;BME280;58897;51.960;5.582;2022-10-26T08:13:58;101036.91;;;13.79;100.00
12987;BME280;58897;51.960;5.582;2022-10-26T08:16:24;101044.19;;;13.87;100.00
12987;BME280;58897;51.960;5.582;2022-10-26T08:18:51;101044.59;;;13.98;100.00
12987;BME280;58897;51.960;5.582;2022-10-26T08:21:17;101047.25;;;14.06;100.00
12987;BME280;58897;51.960;5.582;2022-10-26T08:23:55;101047.25;;;14.29;100.00
12987;BME280;58897;51.960;5.582;2022-10-26T08:26:21;101050.88;;;15.25;100.00
12987;BME280;58897;51.960;5.582;2022-10-26T08:28:48;101045.38;;;15.84;100.00
12987;BME280;58897;51.960;5.582;2022-10-26T08:31:15;101050.78;;;15.33;100.00
12987;BME280;58897;51.960;5.582;2022-10-26T08:33:41;101056.72;;;15.08;100.00
12987;BME280;58897;51.960;5.582;2022-10-26T08:36:10;101044.03;;;15.15;100.00
12987;BME280;58897;51.960;5.582;2022-10-26T08:38:37;101050.88;;;15.25;100.00
12987;BME280;58897;51.960;5.582;2022-10-26T08:41:07;101048.97;;;16.48;100.00
12987;BME280;58897;51.960;5.582;2022-10-26T08:43:40;101040.44;;;15.73;100.00
12987;BME280;58897;51.960;5.582;2022-10-26T08:46:14;101054.41;;;15.49;100.00
12987;BME280;58897;51.960;5.582;2022-10-26T08:48:48;101053.06;;;15.30;100.00
12987;BME280;58897;51.960;5.582;2022-10-26T08:51:20;101068.34;;;15.16;100.00
12987;BME280;58897;51.960;5.582;2022-10-26T08:53:58;101070.06;;;15.61;100.00
12987;BME280;58897;51.960;5.582;2022-10-26T08:56:28;101071.09;;;15.46;100.00
12987;BME280;58897;51.960;5.582;2022-10-26T08:59:08;101071.63;;;17.66;98.41
12987;BME280;58897;51.960;5.582;2022-10-26T09:01:37;101058.72;;;20.65;79.46
12987;BME280;58897;51.960;5.582;2022-10-26T09:04:09;101058.56;;;20.28;78.69
12987;BME280;58897;51.960;5.582;2022-10-26T09:06:49;101060.53;;;18.87;83.46
12987;BME280;58897;51.960;5.582;2022-10-26T09:12:27;101064.66;;;18.30;89.76
12987;BME280;58897;51.960;5.582;2022-10-26T09:18:00;101059.47;;;18.48;89.29
12987;BME280;58897;51.960;5.582;2022-10-26T09:20:58;101062.16;;;18.22;90.05
12987;BME280;58897;51.960;5.582;2022-10-26T09:26:12;101045.19;;;17.32;95.02
12987;BME280;58897;51.960;5.582;2022-10-26T09:28:40;101047.66;;;17.20;96.23
12987;BME280;58897;51.960;5.582;2022-10-26T09:31:12;101056.28;;;18.45;88.85
12987;BME280;58897;51.960;5.582;2022-10-26T09:33:40;101058.47;;;17.82;92.41
12987;BME280;58897;51.960;5.582;2022-10-26T09:36:13;101047.66;;;19.07;87.87
12987;BME280;58897;51.960;5.582;2022-10-26T09:38:50;101049.25;;;19.47;84.67
12987;BME280;58897;51.960;5.582;2022-10-26T09:41:39;101058.81;;;19.19;84.64
12987;BME280;58897;51.960;5.582;2022-10-26T09:44:30;101061.16;;;19.73;83.66
12987;BME280;58897;51.960;5.582;2022-10-26T09:47:05;101080.44;;;19.97;82.96
12987;BME280;58897;51.960;5.582;2022-10-26T09:49:41;101093.63;;;19.76;86.14
12987;BME280;58897;51.960;5.582;2022-10-26T09:52:09;101089.56;;;19.85;82.34
12987;BME280;58897;51.960;5.582;2022-10-26T09:54:36;101106.16;;;19.32;85.43
12987;BME280;58897;51.960;5.582;2022-10-26T09:57:03;101111.19;;;19.35;85.68
12987;BME280;58897;51.960;5.582;2022-10-26T09:59:33;101113.97;;;19.99;84.38
12987;BME280;58897;51.960;5.582;2022-10-26T10:02:34;101111.97;;;20.19;83.11
12987;BME280;58897;51.960;5.582;2022-10-26T10:05:01;101113.66;;;20.20;82.23
12987;BME280;58897;51.960;5.582;2022-10-26T10:07:28;101117.94;;;20.48;81.04
12987;BME280;58897;51.960;5.582;2022-10-26T10:10:15;101116.94;;;19.98;83.39
12987;BME280;58897;51.960;5.582;2022-10-26T10:12:42;101127.00;;;20.79;81.15
12987;BME280;58897;51.960;5.582;2022-10-26T10:15:18;101131.41;;;20.56;81.83
12987;BME280;58897;51.960;5.582;2022-10-26T10:17:49;101126.50;;;20.64;81.66
12987;BME280;58897;51.960;5.582;2022-10-26T10:20:20;101128.09;;;21.03;80.34
12987;BME280;58897;51.960;5.582;2022-10-26T10:23:01;101123.47;;;21.46;78.75
12987;BME280;58897;51.960;5.582;2022-10-26T10:25:37;101124.88;;;21.92;76.09
12987;BME280;58897;51.960;5.582;2022-10-26T10:28:21;101133.16;;;21.85;76.48
12987;BME280;58897;51.960;5.582;2022-10-26T10:31:18;101137.31;;;22.12;75.91
12987;BME280;58897;51.960;5.582;2022-10-26T10:33:46;101146.53;;;22.18;74.95
12987;BME280;58897;51.960;5.582;2022-10-26T10:36:17;101155.41;;;22.80;73.61
12987;BME280;58897;51.960;5.582;2022-10-26T10:38:46;101156.69;;;21.63;75.91
12987;BME280;58897;51.960;5.582;2022-10-26T10:43:55;101159.53;;;21.93;76.68
12987;BME280;58897;51.960;5.582;2022-10-26T10:46:25;101161.28;;;22.53;76.47
12987;BME280;58897;51.960;5.582;2022-10-26T10:49:01;101167.91;;;21.19;78.81
12987;BME280;58897;51.960;5.582;2022-10-26T10:51:34;101166.19;;;21.24;79.84
12987;BME280;58897;51.960;5.582;2022-10-26T10:54:02;101173.44;;;22.34;75.57
12987;BME280;58897;51.960;5.582;2022-10-26T10:57:10;101177.78;;;22.42;74.15
12987;BME280;58897;51.960;5.582;2022-10-26T11:00:26;101175.53;;;22.80;74.12
12987;BME280;58897;51.960;5.582;2022-10-26T11:05:59;101196.91;;;22.66;73.93
12987;BME280;58897;51.960;5.582;2022-10-26T11:08:58;101183.88;;;23.26;72.23
12987;BME280;58897;51.960;5.582;2022-10-26T11:11:31;101186.91;;;23.83;71.88
12987;BME280;58897;51.960;5.582;2022-10-26T11:14:34;101191.22;;;23.79;71.69
12987;BME280;58897;51.960;5.582;2022-10-26T11:19:44;101202.75;;;22.88;73.18
12987;BME280;58897;51.960;5.582;2022-10-26T11:22:15;101213.50;;;21.26;79.41
12987;BME280;58897;51.960;5.582;2022-10-26T11:27:28;101220.41;;;20.22;85.23
12987;BME280;58897;51.960;5.582;2022-10-26T11:30:05;101235.31;;;19.36;90.26
12987;BME280;58897;51.960;5.582;2022-10-26T11:32:55;101229.84;;;19.16;91.59
12987;BME280;58897;51.960;5.582;2022-10-26T11:35:32;101232.59;;;19.16;92.33
12987;BME280;58897;51.960;5.582;2022-10-26T11:38:09;101234.84;;;18.93;94.53
12987;BME280;58897;51.960;5.582;2022-10-26T11:45:56;101242.16;;;18.60;97.50
12987;BME280;58897;51.960;5.582;2022-10-26T11:48:29;101244.50;;;18.69;98.45
12987;BME280;58897;51.960;5.582;2022-10-26T11:50:58;101241.97;;;18.68;97.35
12987;BME280;58897;51.960;5.582;2022-10-26T11:53:30;101236.56;;;19.27;95.21
12987;BME280;58897;51.960;5.582;2022-10-26T11:56:02;101221.66;;;21.08;85.73
12987;BME280;58897;51.960;5.582;2022-10-26T11:58:31;101224.25;;;22.13;78.20
12987;BME280;58897;51.960;5.582;2022-10-26T12:01:06;101218.03;;;22.54;75.12
12987;BME280;58897;51.960;5.582;2022-10-26T12:03:45;101218.69;;;22.20;77.45
12987;BME280;58897;51.960;5.582;2022-10-26T12:06:14;101222.72;;;23.25;72.28
12987;BME280;58897;51.960;5.582;2022-10-26T12:08:46;101225.34;;;22.60;75.38
12987;BME280;58897;51.960;5.582;2022-10-26T12:12:00;101225.25;;;22.85;74.98
12987;BME280;58897;51.960;5.582;2022-10-26T12:14:40;101237.41;;;23.72;71.30
12987;BME280;58897;51.960;5.582;2022-10-26T12:17:14;101243.72;;;22.66;73.09
12987;BME280;58897;51.960;5.582;2022-10-26T12:20:00;101244.66;;;23.31;70.79
12987;BME280;58897;51.960;5.582;2022-10-26T12:22:32;101245.75;;;22.23;76.20
12987;BME280;58897;51.960;5.582;2022-10-26T12:25:18;101241.00;;;22.30;76.05
12987;BME280;58897;51.960;5.582;2022-10-26T12:30:30;101244.66;;;23.20;72.14
12987;BME280;58897;51.960;5.582;2022-10-26T12:32:58;101248.78;;;23.75;70.18
12987;BME280;58897;51.960;5.582;2022-10-26T12:35:42;101251.28;;;23.42;73.43
12987;BME280;58897;51.960;5.582;2022-10-26T12:48:45;101266.66;;;24.08;69.80
12987;BME280;58897;51.960;5.582;2022-10-26T12:56:28;101271.84;;;23.69;69.74
12987;BME280;58897;51.960;5.582;2022-10-26T13:02:03;101265.38;;;23.34;71.37
12987;BME280;58897;51.960;5.582;2022-10-26T13:07:34;101278.91;;;22.46;73.68
12987;BME280;58897;51.960;5.582;2022-10-26T13:12:46;101277.94;;;23.18;71.93
12987;BME280;58897;51.960;5.582;2022-10-26T13:15:22;101270.88;;;22.45;72.74
12987;BME280;58897;51.960;5.582;2022-10-26T13:18:07;101270.00;;;23.10;73.26
12987;BME280;58897;51.960;5.582;2022-10-26T13:20:36;101273.88;;;22.43;75.80
12987;BME280;58897;51.960;5.582;2022-10-26T13:23:26;101281.19;;;22.86;74.38
12987;BME280;58897;51.960;5.582;2022-10-26T13:26:10;101277.91;;;22.41;75.51
12987;BME280;58897;51.960;5.582;2022-10-26T13:33:58;101279.69;;;23.01;73.31
12987;BME280;58897;51.960;5.582;2022-10-26T13:36:37;101283.44;;;22.23;75.95
12987;BME280;58897;51.960;5.582;2022-10-26T13:39:17;101286.31;;;22.46;74.82
12987;BME280;58897;51.960;5.582;2022-10-26T13:41:46;101289.91;;;21.36;78.25
12987;BME280;58897;51.960;5.582;2022-10-26T13:47:00;101289.81;;;21.98;77.11
12987;BME280;58897;51.960;5.582;2022-10-26T13:49:32;101284.91;;;21.58;78.82
12987;BME280;58897;51.960;5.582;2022-10-26T13:52:01;101289.31;;;22.08;77.42
12987;BME280;58897;51.960;5.582;2022-10-26T13:54:55;101287.25;;;21.29;79.77
12987;BME280;58897;51.960;5.582;2022-10-26T13:57:41;101295.31;;;21.98;78.87
12987;BME280;58897;51.960;5.582;2022-10-26T14:00:16;101292.09;;;21.59;78.95
12987;BME280;58897;51.960;5.582;2022-10-26T14:02:43;101291.84;;;21.60;79.54
12987;BME280;58897;51.960;5.582;2022-10-26T14:05:11;101292.75;;;21.23;81.02
12987;BME280;58897;51.960;5.582;2022-10-26T14:07:48;101292.34;;;20.81;83.31
12987;BME280;58897;51.960;5.582;2022-10-26T14:10:27;101290.56;;;21.00;82.52
12987;BME280;58897;51.960;5.582;2022-10-26T14:12:54;101292.41;;;21.13;83.24
12987;BME280;58897;51.960;5.582;2022-10-26T14:15:24;101305.13;;;20.63;84.97
12987;BME280;58897;51.960;5.582;2022-10-26T14:17:52;101304.44;;;20.10;86.91
12987;BME280;58897;51.960;5.582;2022-10-26T14:20:22;101298.72;;;20.24;86.77
12987;BME280;58897;51.960;5.582;2022-10-26T14:22:49;101306.28;;;20.16;87.63
12987;BME280;58897;51.960;5.582;2022-10-26T14:25:27;101311.81;;;20.03;88.11
12987;BME280;58897;51.960;5.582;2022-10-26T14:28:42;101319.66;;;19.60;90.53
12987;BME280;58897;51.960;5.582;2022-10-26T14:31:28;101324.50;;;19.64;90.39
12987;BME280;58897;51.960;5.582;2022-10-26T14:33:56;101322.81;;;19.63;90.32
12987;BME280;58897;51.960;5.582;2022-10-26T14:36:31;101329.56;;;19.61;91.12
12987;BME280;58897;51.960;5.582;2022-10-26T14:39:02;101336.09;;;19.73;90.79
12987;BME280;58897;51.960;5.582;2022-10-26T14:41:33;101348.94;;;19.53;90.96
12987;BME280;58897;51.960;5.582;2022-10-26T14:44:01;101352.13;;;19.50;90.62